Portada
METAR-TAF:

METAR-TAF

Aeroports :

Changchun, Xina

latitud: 43-54N, longitud: 125-13E, altitud: 238 m

Observació

L'informe es va fer fa 37 minuts, a les 20:00 UTC
Vent 6 kt del Oest/Sud-Oest
Temperatura 11°C
Humitat 71%
Pressió 1002 hPa
Visibilitat 10 km o més
sense núvols per sota de 1500 mi sense presència de cumulonimbus.

METAR: ZYCC 012000Z 24003MPS CAVOK 11/06 Q1002 NOSIG

Hora: 04:37 (20:37 UTC)

Pronòstic

L'informe es va fer fa 5 hores i 32 minuts, a les 15:05 UTC
Pronòstic vàlid del 01 a les 18 UTC al 02 a les 18 UTC
Vent 8 kt del Oest/Sud-Oest
Visibilitat: 6000 m
Cel ennuvolat a una alçada de 2300 ft
Temporalment
l' 02 a les 05 UTC al 02 a les 11 UTC
Visibilitat: 2000 m
Escasses núvols a una alçada de 1000 ft, Cumulonimbus.
Cel ennuvolat a una alçada de 2000 ft
tempesta, pluja, boirina

TAF: ZYCC 011505Z 0118/0218 24004MPS 6000 BKN023 TX21/0206Z TN11/0120Z TEMPO 0205/0211 2000 -TSRA BR FEW010CB BKN020

Observacions i pronòstics meteorològics de més de 4000 aeroports (METAR i TAF).

Les estacions disponibles són els punts grocs i vermells al mapa.

Posi el ratolí al punt desitjat per veure el nom de l'estació.

Feu clic per veure les observacions i els pronòstics meteorològics.

Per canviar el mapa: feu clic els botons verds amb una creu de color negre per apropar; al botó verd amb un guió per allunyar la imatge; o en les fletxes verdes per a mapes adjacents.


METAR-TAF: